Station Historical Data
Daily Summary for August 17, 2017 Units:  Metric    English   Both
« Previous Day
Next Day »
Daily Weekly Monthly Yearly Custom
  High: Low: Average:
Temperature: 28.3 °C 15.3 °C 21.9 °C
Dew Point: 21.6 °C 13.3 °C 17.4 °C
Humidity: 91% 52% 77%
Wind Speed: 14.5km/h 0km/h 2.4km/h
Wind Gust: 17.7km/h - -
Wind- - ESE
Pressure: 1017.5 hPa 1006.7 hPa -
Precipitation: 0 mm    
Historical Graphs
 
 
Tabular Data for August 17, 2017
Time Temperature Dew Point Pressure Wind Wind Speed Wind Gust Humidity Rainfall Rate (Hourly)
00:04 18.1 °C 15.1 °C 1017.2 hPa East 4.8 km/h 8 km/h 83% 0 mm
00:09 18.1 °C 15.1 °C 1017.5 hPa East 3.2 km/h 4.8 km/h 83% 0 mm
00:14 18 °C 15.1 °C 1017.2 hPa Calm   3.2 km/h 83% 0 mm
00:19 17.9 °C 15 °C 1017.5 hPa Calm   1.6 km/h 83% 0 mm
00:24 17.9 °C 15.2 °C 1017.2 hPa Calm   4.8 km/h 84% 0 mm
00:29 17.8 °C 15.1 °C 1017.2 hPa Calm     84% 0 mm
00:34 17.8 °C 15.1 °C 1017.2 hPa Calm   1.6 km/h 84% 0 mm
00:39 17.7 °C 14.9 °C 1017.2 hPa Calm   8 km/h 84% 0 mm
00:44 17.7 °C 14.9 °C 1017.2 hPa Calm   8 km/h 84% 0 mm
00:49 17.6 °C 14.9 °C 1017.5 hPa Calm   4.8 km/h 84% 0 mm
00:54 17.6 °C 14.8 °C 1017.5 hPa Calm     84% 0 mm
00:59 17.5 °C 14.8 °C 1017.5 hPa Calm   3.2 km/h 84% 0 mm
01:04 17.4 °C 14.7 °C 1017.5 hPa Calm   3.2 km/h 84% 0 mm
01:09 17.3 °C 14.6 °C 1017.2 hPa Calm   3.2 km/h 84% 0 mm
01:14 17.3 °C 14.7 °C 1017.2 hPa Calm   4.8 km/h 85% 0 mm
01:19 17.3 °C 14.7 °C 1017.2 hPa Calm   8 km/h 85% 0 mm
01:24 17.2 °C 14.4 °C 1017.2 hPa Calm     84% 0 mm
01:29 17.1 °C 14.6 °C 1017.2 hPa Calm     85% 0 mm
01:34 17.1 °C 14.3 °C 1017.2 hPa Calm     84% 0 mm
01:39 17 °C 14.4 °C 1017.5 hPa Calm     85% 0 mm
01:44 16.9 °C 14.4 °C 1017.2 hPa Calm     85% 0 mm
01:49 16.9 °C 14.3 °C 1017.2 hPa Calm     85% 0 mm
01:54 16.8 °C 14.2 °C 1017.2 hPa Calm     85% 0 mm
01:59 16.7 °C 14.1 °C 1017.2 hPa Calm     85% 0 mm
02:04 16.6 °C 14.1 °C 1016.8 hPa Calm     85% 0 mm
02:09 16.6 °C 14 °C 1016.8 hPa Calm   4.8 km/h 85% 0 mm
02:14 16.5 °C 14.2 °C 1016.8 hPa Calm   3.2 km/h 86% 0 mm
02:19 16.4 °C 14.1 °C 1016.5 hPa Calm     86% 0 mm
02:24 16.4 °C 14.1 °C 1016.5 hPa Calm     86% 0 mm
02:29 16.3 °C 14 °C 1016.5 hPa Calm     86% 0 mm
02:34 16.3 °C 13.9 °C 1016.8 hPa Calm     86% 0 mm
02:39 16.2 °C 13.8 °C 1016.5 hPa Calm     86% 0 mm
02:44 16.2 °C 13.8 °C 1016.5 hPa Calm     86% 0 mm
02:49 16.1 °C 13.7 °C 1016.5 hPa Calm     86% 0 mm
02:54 16.1 °C 13.7 °C 1016.5 hPa Calm     86% 0 mm
02:59 15.9 °C 13.6 °C 1016.5 hPa Calm     86% 0 mm
03:04 15.9 °C 13.6 °C 1016.5 hPa Calm     86% 0 mm
03:09 15.9 °C 13.6 °C 1016.5 hPa Calm     86% 0 mm
03:14 15.9 °C 13.6 °C 1016.5 hPa Calm     86% 0 mm
03:19 15.9 °C 13.6 °C 1016.1 hPa Calm     86% 0 mm
03:24 15.8 °C 13.5 °C 1016.1 hPa Calm     86% 0 mm
03:29 15.8 °C 13.7 °C 1016.5 hPa Calm     87% 0 mm
03:34 15.8 °C 13.6 °C 1016.5 hPa Calm     87% 0 mm
03:39 15.8 °C 13.6 °C 1016.1 hPa Calm     87% 0 mm
03:44 15.8 °C 13.6 °C 1016.1 hPa Calm     87% 0 mm
03:49 15.8 °C 13.6 °C 1016.1 hPa Calm     87% 0 mm
03:54 15.7 °C 13.6 °C 1016.1 hPa Calm     87% 0 mm
03:59 15.7 °C 13.5 °C 1016.1 hPa Calm     87% 0 mm
04:04 15.7 °C 13.5 °C 1016.1 hPa Calm     87% 0 mm
04:09 15.6 °C 13.4 °C 1016.1 hPa Calm     87% 0 mm
04:14 15.6 °C 13.4 °C 1016.1 hPa Calm     87% 0 mm
04:19 15.4 °C 13.3 °C 1016.1 hPa Calm     87% 0 mm
04:24 15.4 °C 13.4 °C 1015.8 hPa Calm     88% 0 mm
04:29 15.5 °C 13.5 °C 1015.8 hPa Calm     88% 0 mm
04:34 15.5 °C 13.5 °C 1015.8 hPa Calm     88% 0 mm
04:39 15.5 °C 13.5 °C 1015.8 hPa Calm     88% 0 mm
04:44 15.5 °C 13.5 °C 1015.8 hPa Calm   3.2 km/h 88% 0 mm
04:49 15.6 °C 13.6 °C 1015.8 hPa Calm     88% 0 mm
04:54 15.6 °C 13.6 °C 1015.8 hPa Calm     88% 0 mm
04:59 15.6 °C 13.6 °C 1015.8 hPa Calm     88% 0 mm
05:04 15.6 °C 13.6 °C 1015.8 hPa Calm     88% 0 mm
05:09 15.5 °C 13.5 °C 1015.8 hPa Calm     88% 0 mm
05:14 15.5 °C 13.5 °C 1015.8 hPa Calm     88% 0 mm
05:19 15.4 °C 13.4 °C 1015.8 hPa Calm     88% 0 mm
05:24 15.4 °C 13.4 °C 1015.8 hPa Calm     88% 0 mm
05:29 15.4 °C 13.4 °C 1015.8 hPa Calm     88% 0 mm
05:34 15.4 °C 13.4 °C 1015.8 hPa Calm     88% 0 mm
05:39 15.4 °C 13.7 °C 1015.8 hPa Calm     89% 0 mm
05:44 15.4 °C 13.6 °C 1015.8 hPa Calm     89% 0 mm
05:49 15.3 °C 13.6 °C 1015.8 hPa Calm     89% 0 mm
05:54 15.3 °C 13.6 °C 1015.8 hPa Calm     89% 0 mm
05:59 15.3 °C 13.6 °C 1015.8 hPa Calm     89% 0 mm
06:04 15.3 °C 13.6 °C 1015.8 hPa Calm     89% 0 mm
06:09 15.3 °C 13.6 °C 1015.8 hPa Calm     89% 0 mm
06:14 15.3 °C 13.6 °C 1016.1 hPa Calm     89% 0 mm
06:19 15.3 °C 13.5 °C 1016.1 hPa Calm     89% 0 mm
06:24 15.3 °C 13.5 °C 1015.8 hPa Calm     89% 0 mm
06:29 15.3 °C 13.7 °C 1016.1 hPa Calm     90% 0 mm
06:34 15.4 °C 13.8 °C 1016.1 hPa Calm     90% 0 mm
06:39 15.4 °C 13.8 °C 1015.8 hPa Calm     90% 0 mm
06:44 15.4 °C 13.8 °C 1015.8 hPa Calm     90% 0 mm
06:49 15.6 °C 13.9 °C 1015.8 hPa Calm     90% 0 mm
06:54 15.6 °C 13.7 °C 1015.8 hPa Calm     89% 0 mm
06:59 15.7 °C 14.1 °C 1016.1 hPa Calm     90% 0 mm
07:04 15.8 °C 14.2 °C 1015.8 hPa Calm     90% 0 mm
07:09 15.9 °C 14.1 °C 1015.8 hPa Calm     89% 0 mm
07:14 16 °C 14.2 °C 1015.8 hPa Calm   4.8 km/h 89% 0 mm
07:19 16.2 °C 14.4 °C 1016.1 hPa Calm   4.8 km/h 89% 0 mm
07:24 16.3 °C 14.3 °C 1015.8 hPa Calm   3.2 km/h 88% 0 mm
07:29 16.6 °C 14.6 °C 1015.8 hPa Calm   4.8 km/h 88% 0 mm
07:34 16.8 °C 14.7 °C 1015.8 hPa Calm     87% 0 mm
07:39 17.2 °C 14.8 °C 1015.8 hPa SE 1.6 km/h 8 km/h 86% 0 mm
07:44 17.5 °C 14.9 °C 1015.8 hPa Calm   6.4 km/h 85% 0 mm
07:49 17.8 °C 15.1 °C 1015.8 hPa ENE 1.6 km/h 8 km/h 84% 0 mm
07:54 18.1 °C 15.1 °C 1016.1 hPa SE 1.6 km/h 4.8 km/h 83% 0 mm
07:59 18.3 °C 15.2 °C 1016.1 hPa East 3.2 km/h 9.7 km/h 82% 0 mm
08:04 18.4 °C 15.3 °C 1016.1 hPa SE 1.6 km/h 9.7 km/h 82% 0 mm
08:09 18.6 °C 15.2 °C 1015.8 hPa SE 3.2 km/h 9.7 km/h 81% 0 mm
08:14 18.7 °C 15.4 °C 1015.8 hPa SE 3.2 km/h 9.7 km/h 81% 0 mm
08:19 18.8 °C 15.4 °C 1015.8 hPa SE 3.2 km/h 8 km/h 81% 0 mm
08:24 19.1 °C 15.7 °C 1015.8 hPa ESE 3.2 km/h 8 km/h 81% 0 mm
08:29 19.4 °C 15.9 °C 1015.8 hPa SE 3.2 km/h 8 km/h 80% 0 mm
08:34 19.7 °C 16 °C 1015.8 hPa SE 3.2 km/h 8 km/h 79% 0 mm
08:39 19.8 °C 15.9 °C 1015.8 hPa SE 3.2 km/h 8 km/h 78% 0 mm
08:44 20.1 °C 16.1 °C 1015.8 hPa SE 1.6 km/h 8 km/h 78% 0 mm
08:49 20.4 °C 16.3 °C 1015.8 hPa SE 3.2 km/h 6.4 km/h 77% 0 mm
08:54 20.5 °C 16.3 °C 1015.5 hPa SE 4.8 km/h 8 km/h 77% 0 mm
08:59 20.4 °C 16.1 °C 1015.5 hPa SE 4.8 km/h 8 km/h 76% 0 mm
09:04 21 °C 16.8 °C 1015.5 hPa SE 3.2 km/h 8 km/h 77% 0 mm
09:09 21.2 °C 16.4 °C 1015.5 hPa SE 3.2 km/h 8 km/h 74% 0 mm
09:14 21.1 °C 16.5 °C 1015.5 hPa SE 3.2 km/h 8 km/h 75% 0 mm
09:19 21.5 °C 16.9 °C 1015.5 hPa SE 1.6 km/h 4.8 km/h 75% 0 mm
09:24 21.9 °C 17.3 °C 1015.5 hPa ESE 1.6 km/h 6.4 km/h 75% 0 mm
09:29 22.1 °C 16.8 °C 1015.1 hPa NE 3.2 km/h 9.7 km/h 72% 0 mm
09:34 22 °C 16.7 °C 1015.1 hPa ENE 4.8 km/h 6.4 km/h 72% 0 mm
09:39 22.4 °C 17.3 °C 1015.1 hPa SE 3.2 km/h 8 km/h 73% 0 mm
09:44 22.9 °C 17.6 °C 1015.1 hPa ESE 3.2 km/h 8 km/h 72% 0 mm
09:49 23 °C 17.2 °C 1015.1 hPa SE 3.2 km/h 6.4 km/h 70% 0 mm
09:54 23.5 °C 17.5 °C 1015.1 hPa SE 1.6 km/h 4.8 km/h 69% 0 mm
09:59 23.4 °C 17.4 °C 1015.1 hPa East 3.2 km/h 8 km/h 69% 0 mm
10:04 23.5 °C 17.3 °C 1015.1 hPa SE 1.6 km/h 6.4 km/h 68% 0 mm
10:09 23.6 °C 17.6 °C 1015.1 hPa ENE 1.6 km/h 4.8 km/h 69% 0 mm
10:14 23.9 °C 17.4 °C 1015.1 hPa SE 3.2 km/h 4.8 km/h 67% 0 mm
10:19 24.2 °C 17.2 °C 1015.1 hPa SE 3.2 km/h 6.4 km/h 65% 0 mm
10:24 24.4 °C 17.4 °C 1014.8 hPa ESE 3.2 km/h 6.4 km/h 65% 0 mm
10:29 24.6 °C 17.3 °C 1014.8 hPa SSE 6.4 km/h 9.7 km/h 64% 0 mm
10:34 24.9 °C 17.7 °C 1014.8 hPa SE 1.6 km/h 6.4 km/h 64% 0 mm
10:39 24.9 °C 17.3 °C 1014.8 hPa ESE 3.2 km/h 11.3 km/h 63% 0 mm
10:44 24.8 °C 17.3 °C 1014.8 hPa East 3.2 km/h 11.3 km/h 63% 0 mm
10:49 25 °C 17.7 °C 1014.4 hPa ESE 4.8 km/h 8 km/h 64% 0 mm
10:54 24.9 °C 17.6 °C 1014.8 hPa SE 4.8 km/h 11.3 km/h 64% 0 mm
10:59 25 °C 17.4 °C 1014.8 hPa ESE 3.2 km/h 9.7 km/h 63% 0 mm
11:04 25 °C 17.7 °C 1014.4 hPa SSE 3.2 km/h 4.8 km/h 64% 0 mm
11:09 25.3 °C 17.5 °C 1014.4 hPa ESE 6.4 km/h 6.4 km/h 62% 0 mm
11:14 25.4 °C 17.9 °C 1014.4 hPa Calm   14.5 km/h 63% 0 mm
11:19 25.8 °C 17.7 °C 1014.4 hPa ESE 3.2 km/h 14.5 km/h 61% 0 mm
11:24 25.6 °C 17.8 °C 1014.4 hPa SE 3.2 km/h 8 km/h 62% 0 mm
11:29 26.1 °C 18.4 °C 1014.1 hPa SE 3.2 km/h 6.4 km/h 63% 0 mm
11:34 26.4 °C 18.1 °C 1014.4 hPa SE 1.6 km/h 11.3 km/h 60% 0 mm
11:39 26.2 °C 17.3 °C 1014.1 hPa ESE 4.8 km/h 8 km/h 58% 0 mm
11:44 26 °C 16.8 °C 1013.8 hPa ESE 1.6 km/h 9.7 km/h 57% 0 mm
11:49 25.7 °C 16.8 °C 1014.1 hPa SE 4.8 km/h 9.7 km/h 58% 0 mm
11:54 25.8 °C 17.2 °C 1014.1 hPa SSE 3.2 km/h 8 km/h 59% 0 mm
11:59 26.1 °C 17.9 °C 1013.8 hPa SSE 1.6 km/h 8 km/h 61% 0 mm
12:04 26.2 °C 16.7 °C 1013.8 hPa SSE 3.2 km/h 8 km/h 56% 0 mm
12:09 26.2 °C 17.3 °C 1013.8 hPa Calm   4.8 km/h 58% 0 mm
12:14 26.3 °C 17.1 °C 1013.8 hPa Calm     57% 0 mm
12:19 26.2 °C 16.7 °C 1013.4 hPa SE 8 km/h 8 km/h 56% 0 mm
12:24 26.2 °C 17.3 °C 1013.4 hPa ESE 3.2 km/h 8 km/h 58% 0 mm
12:29 26.3 °C 17.1 °C 1013.4 hPa East 3.2 km/h 8 km/h 57% 0 mm
12:34 26.3 °C 17.1 °C 1013.4 hPa East 3.2 km/h 8 km/h 57% 0 mm
12:39 26.4 °C 16.9 °C 1013.4 hPa Calm   6.4 km/h 56% 0 mm
12:44 26.8 °C 17.3 °C 1013.1 hPa South 3.2 km/h 8 km/h 56% 0 mm
12:49 27.3 °C 17.7 °C 1013.1 hPa South 1.6 km/h 8 km/h 56% 0 mm
12:54 27.4 °C 18.7 °C 1013.1 hPa South 3.2 km/h 8 km/h 59% 0 mm
12:59 28 °C 17.5 °C 1013.1 hPa SE 1.6 km/h 8 km/h 53% 0 mm
13:04 27.7 °C 17.3 °C 1013.1 hPa SE 1.6 km/h 9.7 km/h 53% 0 mm
13:09 27.2 °C 17.1 °C 1012.8 hPa ENE 4.8 km/h 11.3 km/h 54% 0 mm
13:14 26.9 °C 17.1 °C 1012.8 hPa SE 3.2 km/h 8 km/h 55% 0 mm
13:19 27.1 °C 16.9 °C 1012.8 hPa East 1.6 km/h 9.7 km/h 54% 0 mm
13:24 27.1 °C 16.9 °C 1012.8 hPa ESE 3.2 km/h 9.7 km/h 54% 0 mm
13:29 27.1 °C 16.9 °C 1012.8 hPa SE 1.6 km/h 6.4 km/h 54% 0 mm
13:34 27.1 °C 17 °C 1012.4 hPa SE 1.6 km/h 8 km/h 54% 0 mm
13:39 27.2 °C 17.1 °C 1012.4 hPa SE 3.2 km/h 8 km/h 54% 0 mm
13:44 27.8 °C 17.9 °C 1012.4 hPa ESE 4.8 km/h 9.7 km/h 55% 0 mm
13:49 28.2 °C 18 °C 1012.4 hPa SE 4.8 km/h 9.7 km/h 54% 0 mm
13:54 28.1 °C 17.6 °C 1012.1 hPa NE 8 km/h 8 km/h 53% 0 mm
13:59 27.9 °C 17.2 °C 1012.1 hPa East 3.2 km/h 12.9 km/h 52% 0 mm
14:04 28.3 °C 18.1 °C 1012.1 hPa East 6.4 km/h 12.9 km/h 54% 0 mm
14:09 28.1 °C 17.9 °C 1012.1 hPa East 6.4 km/h 14.5 km/h 54% 0 mm
14:14 27.8 °C 17.9 °C 1012.1 hPa ESE 1.6 km/h 12.9 km/h 55% 0 mm
14:19 27.7 °C 17.8 °C 1011.7 hPa NNE 8 km/h 11.3 km/h 55% 0 mm
14:24 27.5 °C 18.2 °C 1011.7 hPa NE 3.2 km/h 11.3 km/h 57% 0 mm
14:29 27.5 °C 18.5 °C 1011.7 hPa ENE 4.8 km/h 11.3 km/h 58% 0 mm
14:34 27.4 °C 18.2 °C 1011.7 hPa East 3.2 km/h 11.3 km/h 57% 0 mm
14:39 27.3 °C 18.3 °C 1011.7 hPa East 3.2 km/h 12.9 km/h 58% 0 mm
14:44 27.2 °C 18.2 °C 1011.7 hPa NE 9.7 km/h 11.3 km/h 58% 0 mm
14:49 27.1 °C 18.1 °C 1011.4 hPa ENE 8 km/h 14.5 km/h 58% 0 mm
14:54 27.2 °C 17.6 °C 1011.4 hPa NE 3.2 km/h 11.3 km/h 56% 0 mm
14:59 27.2 °C 18.2 °C 1011.1 hPa East 4.8 km/h 11.3 km/h 58% 0 mm
15:04 27.3 °C 18.6 °C 1011.1 hPa ESE 3.2 km/h 11.3 km/h 59% 0 mm
15:09 27.2 °C 18.4 °C 1011.1 hPa East 4.8 km/h 12.9 km/h 59% 0 mm
15:14 27.3 °C 18.8 °C 1010.7 hPa East 4.8 km/h 12.9 km/h 60% 0 mm
15:19 27.2 °C 18.2 °C 1010.7 hPa ENE 3.2 km/h 12.9 km/h 58% 0 mm
15:29 27 °C 18.3 °C 1010.7 hPa ENE 6.4 km/h 14.5 km/h 59% 0 mm
15:34 26.9 °C 18.3 °C 1010.7 hPa ENE 3.2 km/h 12.9 km/h 59% 0 mm
15:39 26.7 °C 18.3 °C 1010.7 hPa NE 6.4 km/h 12.9 km/h 60% 0 mm
15:44 26.7 °C 18.5 °C 1010.4 hPa ESE 4.8 km/h 12.9 km/h 61% 0 mm
15:49 26.6 °C 18.7 °C 1010.4 hPa ENE 4.8 km/h 14.5 km/h 62% 0 mm
15:54 26.5 °C 18.9 °C 1010.4 hPa ENE 11.3 km/h 17.7 km/h 63% 0 mm
15:59 26.3 °C 19 °C 1010.4 hPa ENE 8 km/h 17.7 km/h 64% 0 mm
16:04 26.2 °C 19.3 °C 1010 hPa ENE 6.4 km/h 14.5 km/h 66% 0 mm
16:09 26.1 °C 19.3 °C 1010 hPa ENE 6.4 km/h 14.5 km/h 66% 0 mm
16:14 26 °C 19.4 °C 1010 hPa NE 8 km/h 12.9 km/h 67% 0 mm
16:19 25.9 °C 19.3 °C 1010 hPa NE 6.4 km/h 11.3 km/h 67% 0 mm
16:24 25.9 °C 19.6 °C 1010 hPa ENE 4.8 km/h 11.3 km/h 68% 0 mm
16:29 25.8 °C 19.7 °C 1009.7 hPa ENE 6.4 km/h 11.3 km/h 69% 0 mm
16:34 26.1 °C 19.9 °C 1009.7 hPa ENE 4.8 km/h 11.3 km/h 69% 0 mm
16:39 26.2 °C 20.1 °C 1009.7 hPa ENE 4.8 km/h 14.5 km/h 69% 0 mm
16:44 26.3 °C 20.1 °C 1009.7 hPa ENE 6.4 km/h 14.5 km/h 69% 0 mm
16:49 26.3 °C 20.1 °C 1009.7 hPa ENE 11.3 km/h 14.5 km/h 69% 0 mm
16:54 26.3 °C 20.1 °C 1009.4 hPa ESE 12.9 km/h 14.5 km/h 69% 0 mm
16:59 26.4 °C 20.5 °C 1009.4 hPa East 14.5 km/h 17.7 km/h 70% 0 mm
17:04 26.3 °C 20.2 °C 1009.4 hPa ENE 8 km/h 17.7 km/h 69% 0 mm
17:09 26.5 °C 20.6 °C 1009.4 hPa ENE 6.4 km/h 14.5 km/h 70% 0 mm
17:14 26.5 °C 20.3 °C 1009.4 hPa NE 4.8 km/h 14.5 km/h 69% 0 mm
17:19 26.5 °C 20.6 °C 1009.4 hPa ESE 6.4 km/h 11.3 km/h 70% 0 mm
17:24 26.6 °C 20.6 °C 1009.4 hPa East 1.6 km/h 12.9 km/h 70% 0 mm
17:29 26.7 °C 20.5 °C 1009 hPa ESE 1.6 km/h 12.9 km/h 69% 0 mm
17:34 26.7 °C 20.5 °C 1009 hPa East 4.8 km/h 12.9 km/h 69% 0 mm
17:39 26.7 °C 20.7 °C 1009 hPa East 3.2 km/h 11.3 km/h 70% 0 mm
17:44 26.7 °C 20.7 °C 1009 hPa East 4.8 km/h 16.1 km/h 70% 0 mm
17:49 26.6 °C 20.6 °C 1009 hPa East 6.4 km/h 16.1 km/h 70% 0 mm
17:54 26.4 °C 20.6 °C 1008.7 hPa Calm   12.9 km/h 70% 0 mm
17:59 26.4 °C 20.8 °C 1009 hPa ENE 6.4 km/h 12.9 km/h 71% 0 mm
18:04 26.3 °C 20.4 °C 1008.7 hPa East 4.8 km/h 12.9 km/h 70% 0 mm
18:09 26.3 °C 20.6 °C 1008.7 hPa East 4.8 km/h 12.9 km/h 71% 0 mm
18:14 26.2 °C 20.6 °C 1008.7 hPa East 8 km/h 11.3 km/h 71% 0 mm
18:19 26.1 °C 20.4 °C 1008.7 hPa East 3.2 km/h 12.9 km/h 71% 0 mm
18:24 26.1 °C 20.6 °C 1009 hPa East 3.2 km/h 6.4 km/h 72% 0 mm
18:29 25.9 °C 20.9 °C 1009 hPa Calm   8 km/h 74% 0 mm
18:34 25.8 °C 21 °C 1009 hPa ENE 1.6 km/h 4.8 km/h 75% 0 mm
18:39 25.4 °C 21.1 °C 1008.7 hPa ENE 3.2 km/h 6.4 km/h 77% 0.25 mm
18:44 25.1 °C 21.2 °C 1009 hPa ENE 3.2 km/h 8 km/h 79% 0.25 mm
18:49 24.9 °C 21.3 °C 1009 hPa NE 3.2 km/h 8 km/h 80% 0.25 mm
18:54 24.8 °C 21.3 °C 1008.7 hPa NE 1.6 km/h 11.3 km/h 81% 0.51 mm
18:59 24.6 °C 21.1 °C 1008.7 hPa ENE 3.2 km/h 8 km/h 81% 0.51 mm
19:04 24.4 °C 21.1 °C 1008.7 hPa ENE 3.2 km/h 9.7 km/h 82% 0.51 mm
19:09 24.3 °C 21 °C 1008.7 hPa ENE 3.2 km/h 9.7 km/h 82% 0.51 mm
19:14 24.2 °C 21.1 °C 1008.7 hPa ENE 3.2 km/h 9.7 km/h 83% 0.51 mm
19:19 24.1 °C 21.1 °C 1008.4 hPa Calm   6.4 km/h 83% 0.51 mm
19:24 24.1 °C 21 °C 1008.4 hPa Calm   3.2 km/h 83% 0.76 mm
19:29 23.9 °C 21.1 °C 1008.4 hPa Calm     84% 0.76 mm
19:34 23.9 °C 21 °C 1008.4 hPa East 3.2 km/h 9.7 km/h 84% 1.02 mm
19:39 23.8 °C 21.1 °C 1008.4 hPa East 1.6 km/h 9.7 km/h 85% 0.76 mm
19:44 23.7 °C 21.1 °C 1008.4 hPa SE 3.2 km/h 16.1 km/h 85% 0.76 mm
19:49 23.8 °C 21.2 °C 1008.4 hPa SSE 3.2 km/h 16.1 km/h 85% 0.76 mm
19:54 23.9 °C 21.3 °C 1008.4 hPa Calm   4.8 km/h 85% 0.51 mm
19:59 24.1 °C 21.4 °C 1008.4 hPa Calm     85% 0.51 mm
20:04 24.1 °C 21.4 °C 1008 hPa Calm   4.8 km/h 85% 0.76 mm
20:09 24.1 °C 21.6 °C 1008 hPa Calm     86% 0.76 mm
20:14 24 °C 21.5 °C 1008.4 hPa Calm     86% 0.76 mm
20:19 24 °C 21.5 °C 1008.4 hPa Calm     86% 0.76 mm
20:24 23.9 °C 21.4 °C 1008.4 hPa Calm     86% 0.51 mm
20:29 23.9 °C 21.4 °C 1008 hPa Calm     86% 0.51 mm
20:34 23.9 °C 21.4 °C 1008 hPa Calm     86% 0.25 mm
20:39 23.8 °C 21.6 °C 1008 hPa Calm     87% 0.51 mm
20:44 23.8 °C 21.5 °C 1008 hPa Calm     87% 0.51 mm
20:49 23.7 °C 21.4 °C 1008 hPa Calm   4.8 km/h 87% 0.51 mm
20:54 23.6 °C 21.1 °C 1008 hPa South 1.6 km/h 6.4 km/h 86% 0.51 mm
20:59 23.6 °C 21.1 °C 1008 hPa Calm   8 km/h 86% 0.51 mm
21:04 23.6 °C 21.1 °C 1008 hPa Calm   4.8 km/h 86% 0.51 mm
21:09 23.5 °C 21 °C 1008 hPa SSW 8 km/h 11.3 km/h 86% 0.51 mm
21:14 23.4 °C 21.2 °C 1008 hPa Calm   9.7 km/h 87% 0.51 mm
21:19 23.4 °C 21.1 °C 1008 hPa South 1.6 km/h 11.3 km/h 87% 0.76 mm
21:24 23.4 °C 21.1 °C 1008 hPa South 1.6 km/h 6.4 km/h 87% 0.76 mm
21:29 23.3 °C 21.1 °C 1008 hPa South 1.6 km/h 6.4 km/h 87% 1.02 mm
21:34 23.3 °C 21.1 °C 1008 hPa Calm     87% 1.02 mm
21:39 23.3 °C 21.2 °C 1008 hPa Calm     88% 1.02 mm
21:44 23.2 °C 21.1 °C 1008 hPa Calm     88% 1.02 mm
21:49 23.2 °C 21.1 °C 1008 hPa Calm     88% 1.27 mm
21:54 23.2 °C 21.1 °C 1008 hPa Calm     88% 1.27 mm
21:59 23.1 °C 21.2 °C 1008.4 hPa SSW 3.2 km/h 3.2 km/h 89% 1.27 mm
22:04 23.1 °C 21.2 °C 1008.4 hPa WSW 3.2 km/h 4.8 km/h 89% 1.27 mm
22:09 23.1 °C 21.2 °C 1008.7 hPa SW 9.7 km/h 16.1 km/h 89% 1.78 mm
22:14 23.1 °C 21.2 °C 1008.4 hPa SW 6.4 km/h 11.3 km/h 89% 2.79 mm
22:19 22.9 °C 21.1 °C 1008.4 hPa WSW 4.8 km/h 11.3 km/h 89% 2.79 mm
22:24 22.9 °C 21.2 °C 1008.4 hPa SW 4.8 km/h 11.3 km/h 90% 2.79 mm
22:29 22.9 °C 21.2 °C 1008.4 hPa SSW 6.4 km/h 14.5 km/h 90% 2.79 mm
22:34 22.8 °C 20.9 °C 1008 hPa SSW 6.4 km/h 16.1 km/h 89% 3.3 mm
22:39 22.7 °C 21 °C 1007.7 hPa South 6.4 km/h 17.7 km/h 90% 3.05 mm
22:44 22.7 °C 21 °C 1007.7 hPa South 4.8 km/h 17.7 km/h 90% 3.3 mm
22:54 22.7 °C 20.9 °C 1007.3 hPa SSE 4.8 km/h 11.3 km/h 90% 4.06 mm
22:59 22.7 °C 20.9 °C 1007.7 hPa South 3.2 km/h 6.4 km/h 90% 4.06 mm
23:04 22.6 °C 20.9 °C 1007.3 hPa South 1.6 km/h 8 km/h 90% 3.81 mm
23:09 22.6 °C 20.9 °C 1007.3 hPa South 3.2 km/h 8 km/h 90% 3.3 mm
23:24 22.6 °C 21.1 °C 1007.3 hPa SSE 3.2 km/h 11.3 km/h 91% 2.03 mm
23:29 22.6 °C 21.1 °C 1007.3 hPa SE 3.2 km/h 9.7 km/h 91% 1.78 mm
23:34 22.6 °C 21.1 °C 1007 hPa SSE 3.2 km/h 6.4 km/h 91% 1.27 mm
23:39 22.6 °C 21 °C 1007 hPa SSE 3.2 km/h 6.4 km/h 91% 1.27 mm
23:44 22.6 °C 21 °C 1007 hPa South 3.2 km/h 8 km/h 91% 1.02 mm
23:49 22.6 °C 21 °C 1007 hPa SSW 8 km/h 11.3 km/h 91% 1.02 mm
23:54 22.6 °C 21 °C 1006.7 hPa South 3.2 km/h 11.3 km/h 91% 0 mm
23:59 22.6 °C 21 °C 1006.7 hPa SSW 1.6 km/h 8 km/h 91% 0 mm
Buffalo, New York, USA
Compliments of Weather Underground - 2.5 mb